createdAt,value
2024-05-09T00:00:48.388Z,97884.21
2024-05-09T00:03:36.710Z,97882.86
2024-05-09T00:06:05.318Z,97880.50
2024-05-09T00:08:33.838Z,97879.90
2024-05-09T00:11:03.965Z,97882.30
2024-05-09T00:13:32.289Z,97877.87
2024-05-09T00:16:00.415Z,97874.61
2024-05-09T00:18:28.641Z,97876.71
2024-05-09T00:20:56.711Z,97879.59
2024-05-09T00:23:26.219Z,97879.31
2024-05-09T00:25:54.798Z,97878.32
2024-05-09T00:28:23.288Z,97880.44
2024-05-09T00:30:51.989Z,97879.86
2024-05-09T00:33:20.344Z,97878.25
2024-05-09T00:35:48.455Z,97877.38
2024-05-09T00:38:16.531Z,97879.40
2024-05-09T00:40:44.790Z,97882.86
2024-05-09T00:43:14.567Z,97882.94
2024-05-09T00:45:44.288Z,97885.13
2024-05-09T00:48:17.788Z,97882.09
2024-05-09T00:50:48.382Z,97879.41
2024-05-09T00:53:18.361Z,97881.58
2024-05-09T00:55:47.764Z,97883.31
2024-05-09T00:58:21.019Z,97880.86
2024-05-09T01:00:51.086Z,97884.97
2024-05-09T01:03:20.445Z,97882.27
2024-05-09T01:05:49.910Z,97883.76
2024-05-09T01:08:18.541Z,97882.70
2024-05-09T01:10:48.542Z,97881.98
2024-05-09T01:13:17.487Z,97883.39
2024-05-09T01:15:49.874Z,97885.03
2024-05-09T01:18:18.349Z,97884.25
2024-05-09T01:20:46.755Z,97886.70
2024-05-09T01:23:16.657Z,97888.30
2024-05-09T01:25:46.428Z,97885.77
2024-05-09T01:28:16.262Z,97887.48
2024-05-09T01:30:46.590Z,97889.49
2024-05-09T01:33:16.770Z,97887.88
2024-05-09T01:35:45.091Z,97886.81
2024-05-09T01:38:13.981Z,97883.35
2024-05-09T01:40:43.816Z,97881.98
2024-05-09T01:43:12.805Z,97880.48
2024-05-09T01:45:41.492Z,97879.25
2024-05-09T01:48:11.440Z,97875.09
2024-05-09T01:50:42.417Z,97877.31
2024-05-09T01:53:13.754Z,97879.94
2024-05-09T01:55:44.312Z,97874.13
2024-05-09T01:58:13.285Z,97871.74
2024-05-09T02:00:43.181Z,97871.12
2024-05-09T02:03:15.842Z,97866.15
2024-05-09T02:05:49.779Z,97861.95
2024-05-09T02:08:22.549Z,97861.69
2024-05-09T02:10:51.413Z,97862.09
2024-05-09T02:13:20.034Z,97862.02
2024-05-09T02:15:52.666Z,97862.91
2024-05-09T02:18:20.900Z,97863.66
2024-05-09T02:20:50.141Z,97870.52
2024-05-09T02:23:19.747Z,97874.58
2024-05-09T02:25:48.637Z,97877.84
2024-05-09T02:28:18.171Z,97879.43
2024-05-09T02:30:46.878Z,97878.04
2024-05-09T02:33:15.262Z,97880.89
2024-05-09T02:35:44.378Z,97884.14
2024-05-09T02:38:14.464Z,97885.57
2024-05-09T02:40:42.569Z,97887.66
2024-05-09T02:43:13.399Z,97887.81
2024-05-09T02:45:41.805Z,97893.45
2024-05-09T02:48:12.464Z,97896.57
2024-05-09T02:50:42.333Z,97897.92
2024-05-09T02:53:11.994Z,97894.98
2024-05-09T02:55:42.425Z,97899.25
2024-05-09T02:58:11.682Z,97904.29
2024-05-09T03:00:42.198Z,97905.80
2024-05-09T03:03:14.328Z,97908.27
2024-05-09T03:05:46.339Z,97905.29
2024-05-09T03:08:15.960Z,97906.35
2024-05-09T03:10:44.184Z,97907.73
2024-05-09T03:13:15.421Z,97905.45
2024-05-09T03:15:45.101Z,97898.73
2024-05-09T03:18:15.282Z,97898.04
2024-05-09T03:20:44.541Z,97901.64
2024-05-09T03:23:15.559Z,97902.58
2024-05-09T03:25:44.391Z,97904.56
2024-05-09T03:28:12.670Z,97906.25
2024-05-09T03:30:42.988Z,97906.25
2024-05-09T03:33:19.560Z,97909.11
2024-05-09T03:35:50.784Z,97906.05
2024-05-09T03:38:19.250Z,97907.05
2024-05-09T03:40:50.118Z,97908.33
2024-05-09T03:43:22.524Z,97912.98
2024-05-09T03:45:51.608Z,97911.17
2024-05-09T03:48:19.843Z,97912.86
2024-05-09T03:50:48.193Z,97914.23
2024-05-09T03:53:16.620Z,97918.86
2024-05-09T03:55:48.582Z,97920.73
2024-05-09T03:58:16.558Z,97920.45
2024-05-09T04:00:44.935Z,97926.15
2024-05-09T04:03:13.872Z,97925.75
2024-05-09T04:05:46.269Z,97925.30
2024-05-09T04:08:17.646Z,97928.57
2024-05-09T04:10:46.090Z,97931.25
2024-05-09T04:13:14.288Z,97932.80
2024-05-09T04:15:47.041Z,97934.72
2024-05-09T04:18:19.657Z,97937.33
2024-05-09T04:20:48.007Z,97938.60
2024-05-09T04:23:16.945Z,97941.34
2024-05-09T04:25:45.811Z,97943.09
2024-05-09T04:28:14.639Z,97941.52
2024-05-09T04:30:44.634Z,97942.15
2024-05-09T04:33:15.299Z,97943.74
2024-05-09T04:35:44.367Z,97943.29
2024-05-09T04:38:16.169Z,97944.15
2024-05-09T04:40:44.444Z,97942.27
2024-05-09T04:43:18.499Z,97944.31
2024-05-09T04:45:46.866Z,97938.10
2024-05-09T04:48:16.503Z,97936.52
2024-05-09T04:50:45.098Z,97934.97
2024-05-09T04:53:16.539Z,97934.19
2024-05-09T04:55:47.777Z,97939.48
2024-05-09T04:58:16.058Z,97941.33
2024-05-09T05:00:45.583Z,97946.19
2024-05-09T05:03:15.857Z,97954.88
2024-05-09T05:05:49.315Z,97956.66
2024-05-09T05:08:19.806Z,97955.85
2024-05-09T05:10:49.361Z,97953.32
2024-05-09T05:13:23.095Z,97954.48
2024-05-09T05:15:56.810Z,97958.39
2024-05-09T05:18:27.719Z,97959.01
2024-05-09T05:20:58.932Z,97958.70
2024-05-09T05:23:27.162Z,97957.05
2024-05-09T05:25:58.051Z,97964.58
2024-05-09T05:28:28.318Z,97964.74
2024-05-09T05:30:56.593Z,97963.30
2024-05-09T05:33:25.080Z,97965.06
2024-05-09T05:35:53.746Z,97965.70
2024-05-09T05:38:27.518Z,97967.36
2024-05-09T05:40:56.834Z,97970.23
2024-05-09T05:43:25.253Z,97973.73
2024-05-09T05:45:53.213Z,97974.61
2024-05-09T05:48:22.834Z,97980.61
2024-05-09T05:50:51.676Z,97976.73
2024-05-09T05:53:20.766Z,97976.73
2024-05-09T05:55:49.018Z,97977.52
2024-05-09T05:58:19.649Z,97981.67
2024-05-09T06:00:48.458Z,97981.44
2024-05-09T06:03:19.445Z,97982.10
2024-05-09T06:05:49.390Z,97984.05
2024-05-09T06:08:17.564Z,97981.69
2024-05-09T06:10:47.022Z,97982.48
2024-05-09T06:13:15.661Z,97982.89
2024-05-09T06:15:44.190Z,97981.02
2024-05-09T06:18:14.385Z,97977.58
2024-05-09T06:20:44.056Z,97977.95
2024-05-09T06:23:14.282Z,97979.29
2024-05-09T06:25:43.712Z,97976.73
2024-05-09T06:28:12.654Z,97974.83
2024-05-09T06:30:43.190Z,97968.67
2024-05-09T06:33:14.121Z,97960.39
2024-05-09T06:35:45.928Z,97957.17
2024-05-09T06:38:14.657Z,97952.88
2024-05-09T06:40:44.565Z,97956.17
2024-05-09T06:43:15.407Z,97957.39
2024-05-09T06:45:49.427Z,97961.34
2024-05-09T06:48:19.599Z,97969.00
2024-05-09T06:50:50.472Z,97970.68
2024-05-09T06:53:22.043Z,97970.54
2024-05-09T06:55:50.517Z,97972.33
2024-05-09T06:58:21.194Z,97972.95
2024-05-09T07:00:50.548Z,97975.19
2024-05-09T07:03:19.587Z,97973.98
2024-05-09T07:05:49.501Z,97975.84
2024-05-09T07:08:19.920Z,97978.05
2024-05-09T07:10:57.374Z,97975.09
2024-05-09T07:13:25.764Z,97977.05
2024-05-09T07:15:57.697Z,97980.20
2024-05-09T07:18:27.431Z,97986.32
2024-05-09T07:20:56.279Z,97985.73
2024-05-09T07:23:24.635Z,97984.97
2024-05-09T07:25:52.912Z,97982.89
2024-05-09T07:28:21.467Z,97981.89
2024-05-09T07:30:50.682Z,97978.23
2024-05-09T07:33:23.489Z,97976.41
2024-05-09T07:35:53.099Z,97973.30
2024-05-09T07:38:21.436Z,97975.02
2024-05-09T07:40:52.923Z,97979.28
2024-05-09T07:43:21.549Z,97979.09
2024-05-09T07:45:54.159Z,97983.60
2024-05-09T07:50:00.428Z,97983.58
2024-05-09T07:53:50.813Z,97985.56
2024-05-09T07:56:23.783Z,97986.16
2024-05-09T07:58:56.424Z,97984.02
2024-05-09T08:01:29.760Z,97982.09
2024-05-09T08:03:58.663Z,97984.55
2024-05-09T08:06:27.120Z,97982.70
2024-05-09T08:08:56.078Z,97984.14
2024-05-09T08:11:26.158Z,97988.78
2024-05-09T08:13:55.374Z,97990.36
2024-05-09T08:16:23.939Z,97993.84
2024-05-09T08:20:08.627Z,97989.07
2024-05-09T08:22:31.953Z,97993.89
2024-05-09T08:25:00.237Z,97997.16
2024-05-09T08:27:31.289Z,97999.39
2024-05-09T08:29:59.835Z,98004.08
2024-05-09T08:32:31.446Z,98003.77
2024-05-09T08:35:01.541Z,98005.59
2024-05-09T08:37:35.116Z,98008.31
2024-05-09T08:40:33.712Z,98009.58
2024-05-09T08:43:11.700Z,98013.65
2024-05-09T08:45:44.162Z,98017.80
2024-05-09T08:48:17.858Z,98019.23
2024-05-09T08:50:51.217Z,98016.64
2024-05-09T08:53:20.287Z,98020.20
2024-05-09T08:55:56.602Z,98023.16
2024-05-09T08:58:26.181Z,98029.40
2024-05-09T09:00:57.924Z,98029.75
2024-05-09T09:03:30.091Z,98032.79
2024-05-09T09:06:10.857Z,98034.81
2024-05-09T09:08:42.968Z,98034.55
2024-05-09T09:11:12.044Z,98035.73
2024-05-09T09:13:41.686Z,98038.92
2024-05-09T09:16:10.100Z,98039.62
2024-05-09T09:18:39.046Z,98037.21
2024-05-09T09:21:11.502Z,98039.40
2024-05-09T09:23:40.075Z,98043.03
2024-05-09T09:26:39.772Z,98038.02
2024-05-09T09:29:08.154Z,98044.30
2024-05-09T09:31:39.014Z,98041.92
2024-05-09T09:34:08.932Z,98040.77
2024-05-09T09:36:44.365Z,98043.08
2024-05-09T09:39:19.645Z,98039.43
2024-05-09T09:41:49.333Z,98044.85
2024-05-09T09:44:22.184Z,98042.36
2024-05-09T09:46:56.478Z,98041.88
2024-05-09T09:49:28.366Z,98046.27
2024-05-09T09:52:04.945Z,98047.05
2024-05-09T09:54:34.637Z,98047.35
2024-05-09T09:57:04.696Z,98047.39
2024-05-09T09:59:37.302Z,98047.98
2024-05-09T10:02:08.442Z,98047.48
2024-05-09T10:04:37.326Z,98048.11
2024-05-09T10:07:19.814Z,98048.34
2024-05-09T10:09:49.042Z,98046.30
2024-05-09T10:12:20.908Z,98048.75
2024-05-09T10:14:51.110Z,98051.71
2024-05-09T10:17:23.916Z,98051.53
2024-05-09T10:20:14.835Z,98054.50
2024-05-09T10:22:51.244Z,98053.99
2024-05-09T10:25:20.003Z,98050.48
2024-05-09T10:27:56.619Z,98049.64
2024-05-09T10:30:35.651Z,98048.83
2024-05-09T10:33:11.088Z,98048.63
2024-05-09T10:35:51.721Z,98047.71
2024-05-09T10:38:24.056Z,98049.44
2024-05-09T10:40:57.287Z,98048.55
2024-05-09T10:43:26.003Z,98048.83
2024-05-09T10:45:54.382Z,98052.69
2024-05-09T10:48:24.407Z,98055.76
2024-05-09T10:50:52.990Z,98054.93
2024-05-09T10:53:24.931Z,98057.11
2024-05-09T10:56:01.716Z,98058.95
2024-05-09T10:58:30.143Z,98060.31
2024-05-09T11:01:05.403Z,98065.19
2024-05-09T11:03:36.839Z,98069.23
2024-05-09T11:06:12.276Z,98072.52
2024-05-09T11:08:49.458Z,98068.98
2024-05-09T11:11:26.516Z,98071.36
2024-05-09T11:13:55.023Z,98075.48
2024-05-09T11:16:28.889Z,98077.41
2024-05-09T11:18:59.487Z,98078.86
2024-05-09T11:21:28.326Z,98081.55
2024-05-09T11:23:58.595Z,98083.90
2024-05-09T11:26:29.585Z,98080.73
2024-05-09T11:28:58.863Z,98083.77
2024-05-09T11:31:29.352Z,98091.96
2024-05-09T11:34:00.320Z,98092.21
2024-05-09T11:36:29.151Z,98093.12
2024-05-09T11:38:57.639Z,98099.04
2024-05-09T11:41:27.275Z,98100.80
2024-05-09T11:44:01.477Z,98105.61
2024-05-09T11:46:29.786Z,98106.59
2024-05-09T11:48:58.329Z,98100.74
2024-05-09T11:51:26.632Z,98097.18
2024-05-09T11:53:56.172Z,98094.31
2024-05-09T11:56:26.061Z,98093.68
2024-05-09T11:58:55.250Z,98094.25
2024-05-09T12:01:26.936Z,98100.55
2024-05-09T12:03:56.283Z,98105.43
2024-05-09T12:06:25.103Z,98105.20
2024-05-09T12:08:54.901Z,98106.11
2024-05-09T12:11:23.999Z,98105.68
2024-05-09T12:13:53.860Z,98102.84
2024-05-09T12:16:22.693Z,98106.75
2024-05-09T12:18:51.091Z,98106.81
2024-05-09T12:21:26.882Z,98105.85
2024-05-09T12:23:55.028Z,98108.12
2024-05-09T12:26:23.069Z,98110.24
2024-05-09T12:28:52.260Z,98110.27
2024-05-09T12:31:21.553Z,98110.86
2024-05-09T12:33:50.366Z,98104.88
2024-05-09T12:36:20.258Z,98099.28
2024-05-09T12:38:50.001Z,98097.55
2024-05-09T12:41:20.503Z,98102.26
2024-05-09T12:43:49.959Z,98099.05
2024-05-09T12:46:21.605Z,98091.48
2024-05-09T12:48:54.732Z,98089.59
2024-05-09T12:51:23.070Z,98087.48
2024-05-09T12:53:51.630Z,98085.38
2024-05-09T12:56:23.393Z,98088.98
2024-05-09T12:58:53.824Z,98088.70
2024-05-09T13:01:22.702Z,98093.55
2024-05-09T13:03:54.426Z,98097.00
2024-05-09T13:06:22.910Z,98094.75
2024-05-09T13:08:53.537Z,98102.27
2024-05-09T13:11:21.829Z,98103.15
2024-05-09T13:13:50.552Z,98109.42
2024-05-09T13:16:22.165Z,98112.98
2024-05-09T13:18:50.922Z,98115.24
2024-05-09T13:21:19.500Z,98113.65
2024-05-09T13:23:48.807Z,98115.83
2024-05-09T13:26:17.121Z,98118.36
2024-05-09T13:28:46.279Z,98111.13
2024-05-09T13:31:14.585Z,98112.40
2024-05-09T13:33:43.887Z,98110.53
2024-05-09T13:36:12.528Z,98109.36
2024-05-09T13:38:40.950Z,98107.55
2024-05-09T13:41:09.353Z,98104.10
2024-05-09T13:43:38.833Z,98099.36
2024-05-09T13:46:07.681Z,98097.34
2024-05-09T13:48:36.172Z,98095.64
2024-05-09T13:51:05.694Z,98088.06
2024-05-09T13:53:34.685Z,98080.38
2024-05-09T13:56:06.419Z,98073.44
2024-05-09T13:58:35.243Z,98067.34
2024-05-09T14:01:03.492Z,98059.18
2024-05-09T14:03:32.398Z,98049.48
2024-05-09T14:06:01.027Z,98042.73
2024-05-09T14:08:29.835Z,98038.93
2024-05-09T14:10:58.227Z,98041.46
2024-05-09T14:13:27.289Z,98048.01
2024-05-09T14:15:55.646Z,98054.75
2024-05-09T14:18:25.307Z,98056.11
2024-05-09T14:20:54.628Z,98054.73
2024-05-09T14:23:23.214Z,98046.77
2024-05-09T14:25:54.307Z,98040.42
2024-05-09T14:28:24.617Z,98038.37
2024-05-09T14:30:55.251Z,98033.52
2024-05-09T14:33:26.938Z,98034.26
2024-05-09T14:35:57.168Z,98032.92
2024-05-09T14:38:33.073Z,98038.02
2024-05-09T14:41:03.660Z,98041.33
2024-05-09T14:43:32.521Z,98043.98
2024-05-09T14:46:02.653Z,98045.63
2024-05-09T14:48:31.585Z,98050.13
2024-05-09T14:51:00.317Z,98049.23
2024-05-09T14:53:28.825Z,98045.55
2024-05-09T14:55:57.681Z,98041.09
2024-05-09T14:58:26.721Z,98041.13
2024-05-09T15:00:55.278Z,98033.85
2024-05-09T15:03:27.300Z,98038.90
2024-05-09T15:05:56.130Z,98037.66
2024-05-09T15:08:26.475Z,98036.88
2024-05-09T15:10:54.722Z,98035.04
2024-05-09T15:13:26.760Z,98029.34
2024-05-09T15:15:56.030Z,98026.73
2024-05-09T15:18:27.556Z,98025.77
2024-05-09T15:20:58.440Z,98026.35
2024-05-09T15:23:27.223Z,98016.89
2024-05-09T15:25:55.517Z,98013.70
2024-05-09T15:28:25.025Z,98014.92
2024-05-09T15:30:53.356Z,98013.52
2024-05-09T15:33:22.361Z,98002.36
2024-05-09T15:35:52.890Z,97991.52
2024-05-09T15:38:21.934Z,97987.88
2024-05-09T15:40:50.337Z,97989.31
2024-05-09T15:43:19.610Z,97995.99
2024-05-09T15:45:51.489Z,97998.69
2024-05-09T15:48:21.124Z,97999.38
2024-05-09T15:50:52.766Z,98004.96
2024-05-09T15:53:21.323Z,98003.23
2024-05-09T15:55:49.800Z,98003.30
2024-05-09T15:58:19.107Z,98005.61
2024-05-09T16:00:49.742Z,98001.95
2024-05-09T16:03:22.568Z,98003.52
2024-05-09T16:05:52.709Z,98003.88
2024-05-09T16:08:21.979Z,98002.78
2024-05-09T16:10:51.302Z,98005.90
2024-05-09T16:13:24.576Z,98004.73
2024-05-09T16:15:53.576Z,98005.17
2024-05-09T16:18:24.239Z,98001.80
2024-05-09T16:21:01.502Z,98001.59
2024-05-09T16:23:29.699Z,97999.90
2024-05-09T16:25:58.392Z,98001.49
2024-05-09T16:28:27.395Z,97996.27
2024-05-09T16:30:56.682Z,97993.73
2024-05-09T16:33:26.118Z,97990.74
2024-05-09T16:35:58.643Z,97992.73
2024-05-09T16:38:28.339Z,97997.70
2024-05-09T16:40:59.608Z,98004.05
2024-05-09T16:43:29.052Z,98008.05
2024-05-09T16:45:58.359Z,98013.11
2024-05-09T16:48:28.459Z,98015.64
2024-05-09T16:50:59.634Z,98018.84
2024-05-09T16:53:28.023Z,98023.77
2024-05-09T16:55:58.830Z,98022.89
2024-05-09T16:58:27.213Z,98021.43
2024-05-09T17:00:59.208Z,98025.03
2024-05-09T17:03:27.484Z,98032.59
2024-05-09T17:05:57.448Z,98036.64
2024-05-09T17:08:25.753Z,98041.05
2024-05-09T17:10:55.521Z,98045.51
2024-05-09T17:13:24.733Z,98048.42
2024-05-09T17:15:58.433Z,98049.10
2024-05-09T17:18:27.885Z,98053.36
2024-05-09T17:20:57.310Z,98055.18
2024-05-09T17:23:30.488Z,98053.18
2024-05-09T17:26:00.734Z,98051.91
2024-05-09T17:28:29.718Z,98047.32
2024-05-09T17:30:58.167Z,98053.20
2024-05-09T17:33:26.515Z,98052.22
2024-05-09T17:35:54.698Z,98049.92
2024-05-09T17:38:25.076Z,98057.19
2024-05-09T17:40:55.493Z,98057.01
2024-05-09T17:43:26.540Z,98057.39
2024-05-09T17:45:56.168Z,98051.64
2024-05-09T17:48:24.788Z,98050.48
2024-05-09T17:50:54.677Z,98046.90
2024-05-09T17:53:22.910Z,98048.09
2024-05-09T17:55:55.548Z,98052.54
2024-05-09T17:58:23.935Z,98060.54
2024-05-09T18:00:52.537Z,98067.19
2024-05-09T18:03:23.681Z,98077.29
2024-05-09T18:05:52.141Z,98086.77
2024-05-09T18:08:23.942Z,98087.80
2024-05-09T18:10:54.816Z,98085.30
2024-05-09T18:13:26.860Z,98088.55
2024-05-09T18:15:56.583Z,98089.81
2024-05-09T18:18:25.548Z,98092.45
2024-05-09T18:20:54.310Z,98099.13
2024-05-09T18:23:24.864Z,98098.55
2024-05-09T18:25:55.025Z,98097.30
2024-05-09T18:28:24.322Z,98104.38
2024-05-09T18:30:53.997Z,98109.52
2024-05-09T18:33:23.320Z,98114.64
2024-05-09T18:35:51.790Z,98123.95
2024-05-09T18:38:25.559Z,98125.85
2024-05-09T18:40:54.158Z,98127.00
2024-05-09T18:43:28.758Z,98130.00
2024-05-09T18:46:05.837Z,98138.61
2024-05-09T18:48:34.612Z,98137.61
2024-05-09T18:51:05.015Z,98135.52
2024-05-09T18:53:33.501Z,98131.73
2024-05-09T18:56:01.765Z,98132.92
2024-05-09T18:58:31.535Z,98131.96
2024-05-09T19:01:02.079Z,98135.43
2024-05-09T19:03:31.307Z,98140.09
2024-05-09T19:06:00.031Z,98147.61
2024-05-09T19:08:32.037Z,98155.21
2024-05-09T19:11:01.704Z,98160.35
2024-05-09T19:13:31.254Z,98166.98
2024-05-09T19:16:02.936Z,98173.66
2024-05-09T19:18:31.524Z,98177.15
2024-05-09T19:21:01.183Z,98183.84
2024-05-09T19:23:35.344Z,98190.64
2024-05-09T19:26:09.924Z,98187.73
2024-05-09T19:28:40.360Z,98189.61
2024-05-09T19:31:08.609Z,98193.43
2024-05-09T19:33:38.258Z,98198.63
2024-05-09T19:36:07.358Z,98197.65
2024-05-09T19:38:36.681Z,98193.29
2024-05-09T19:41:05.110Z,98189.88
2024-05-09T19:43:36.296Z,98192.02
2024-05-09T19:46:05.478Z,98193.66
2024-05-09T19:48:34.477Z,98194.31
2024-05-09T19:51:04.843Z,98197.48
2024-05-09T19:53:33.894Z,98201.00
2024-05-09T19:56:02.904Z,98208.31
2024-05-09T19:58:32.647Z,98205.70
2024-05-09T20:01:01.573Z,98204.05
2024-05-09T20:03:37.387Z,98209.17
2024-05-09T20:06:08.779Z,98214.01
2024-05-09T20:08:36.959Z,98218.15
2024-05-09T20:11:05.492Z,98215.31
2024-05-09T20:13:34.288Z,98215.02
2024-05-09T20:16:02.663Z,98214.73
2024-05-09T20:18:32.556Z,98215.42
2024-05-09T20:21:02.464Z,98211.47
2024-05-09T20:23:30.909Z,98215.27
2024-05-09T20:25:58.958Z,98220.46
2024-05-09T20:28:27.741Z,98223.11
2024-05-09T20:30:55.929Z,98228.08
2024-05-09T20:33:24.014Z,98229.91
2024-05-09T20:36:01.481Z,98229.15
2024-05-09T20:38:32.945Z,98225.33
2024-05-09T20:41:02.352Z,98220.34
2024-05-09T20:43:31.779Z,98214.26
2024-05-09T20:45:59.872Z,98211.57
2024-05-09T20:48:30.961Z,98217.11
2024-05-09T20:51:02.343Z,98216.40
2024-05-09T20:53:31.854Z,98222.09
2024-05-09T20:55:59.977Z,98224.73
2024-05-09T20:58:29.499Z,98223.69
2024-05-09T21:00:58.070Z,98220.36
2024-05-09T21:03:28.720Z,98221.88
2024-05-09T21:05:58.490Z,98219.46
2024-05-09T21:08:27.108Z,98220.01
2024-05-09T21:10:56.620Z,98230.02
2024-05-09T21:13:25.309Z,98227.67
2024-05-09T21:15:53.913Z,98229.48
2024-05-09T21:18:22.143Z,98230.52
2024-05-09T21:20:50.653Z,98234.33
2024-05-09T21:23:20.499Z,98239.52
2024-05-09T21:25:48.966Z,98243.83
2024-05-09T21:28:19.590Z,98242.02
2024-05-09T21:30:48.194Z,98239.61
2024-05-09T21:33:16.303Z,98238.72
2024-05-09T21:35:45.499Z,98242.59
2024-05-09T21:38:15.267Z,98237.70
2024-05-09T21:40:45.894Z,98239.48
2024-05-09T21:43:14.281Z,98238.61
2024-05-09T21:45:43.291Z,98233.80
2024-05-09T21:48:13.455Z,98236.91
2024-05-09T21:50:42.754Z,98234.84
2024-05-09T21:53:13.486Z,98239.16
2024-05-09T21:55:42.759Z,98238.70
2024-05-09T21:58:14.812Z,98240.30
2024-05-09T22:00:45.758Z,98240.73
2024-05-09T22:03:15.679Z,98244.40
2024-05-09T22:05:45.196Z,98244.40
2024-05-09T22:08:14.126Z,98245.89
2024-05-09T22:10:43.087Z,98247.39
2024-05-09T22:13:11.430Z,98251.17
2024-05-09T22:15:40.785Z,98251.15
2024-05-09T22:18:11.009Z,98252.02
2024-05-09T22:20:45.377Z,98254.15
2024-05-09T22:23:16.306Z,98257.56
2024-05-09T22:25:45.481Z,98260.84
2024-05-09T22:28:18.700Z,98263.01
2024-05-09T22:30:47.812Z,98267.46
2024-05-09T22:33:16.385Z,98264.20
2024-05-09T22:35:45.110Z,98265.70
2024-05-09T22:38:15.165Z,98262.09
2024-05-09T22:40:48.288Z,98264.61
2024-05-09T22:43:24.094Z,98263.61
2024-05-09T22:45:56.486Z,98263.92
2024-05-09T22:48:27.096Z,98265.42
2024-05-09T22:50:58.317Z,98267.90
2024-05-09T22:53:27.234Z,98268.33
2024-05-09T22:55:55.300Z,98267.02
2024-05-09T22:58:24.006Z,98264.34
2024-05-09T23:00:52.733Z,98267.15
2024-05-09T23:03:26.602Z,98265.98
2024-05-09T23:05:55.581Z,98265.45
2024-05-09T23:08:23.514Z,98273.46
2024-05-09T23:10:51.967Z,98270.52
2024-05-09T23:13:20.458Z,98271.73
2024-05-09T23:15:48.760Z,98275.14
2024-05-09T23:18:17.024Z,98271.39
2024-05-09T23:20:45.082Z,98273.92
2024-05-09T23:23:13.140Z,98268.91
2024-05-09T23:25:42.114Z,98268.49
2024-05-09T23:28:11.231Z,98269.73
2024-05-09T23:30:41.217Z,98270.64
2024-05-09T23:33:12.897Z,98267.89
2024-05-09T23:35:44.431Z,98268.62
2024-05-09T23:38:13.850Z,98268.92
2024-05-09T23:40:43.406Z,98269.20
2024-05-09T23:43:14.460Z,98270.44
2024-05-09T23:45:44.259Z,98265.19
2024-05-09T23:48:13.044Z,98258.98
2024-05-09T23:50:41.845Z,98256.90
2024-05-09T23:53:10.833Z,98254.67
2024-05-09T23:55:42.602Z,98254.25
2024-05-09T23:58:11.460Z,98252.73
